createdAt,value
2023-03-23T15:58:18.287Z,17.14
2023-03-23T16:00:44.955Z,17.17
2023-03-23T16:03:14.393Z,17.07
2023-03-23T16:05:41.379Z,16.88
2023-03-23T16:08:11.030Z,16.67
2023-03-23T16:10:37.686Z,16.63
2023-03-23T16:13:04.342Z,16.63
2023-03-23T16:15:31.149Z,16.62
2023-03-23T16:17:57.902Z,16.62
2023-03-23T16:20:24.893Z,16.68
2023-03-23T16:22:51.880Z,16.86
2023-03-23T16:25:18.784Z,16.96
2023-03-23T16:27:45.521Z,17.01
2023-03-23T16:30:34.031Z,16.92
2023-03-23T16:33:00.763Z,16.87
2023-03-23T16:35:27.475Z,16.55
2023-03-23T16:38:07.974Z,16.23
2023-03-23T16:40:36.564Z,16.05
2023-03-23T16:43:08.757Z,15.91
2023-03-23T16:45:37.378Z,15.80
2023-03-23T16:48:04.145Z,15.78
2023-03-23T16:50:30.879Z,15.85
2023-03-23T16:52:57.581Z,15.92
2023-03-23T16:55:24.270Z,16.13
2023-03-23T16:57:50.954Z,16.21
2023-03-23T17:00:18.178Z,16.16
2023-03-23T17:02:45.009Z,16.11
2023-03-23T17:05:12.239Z,16.11
2023-03-23T17:07:39.606Z,16.00
2023-03-23T17:10:06.795Z,15.90
2023-03-23T17:12:33.554Z,16.02
2023-03-23T17:15:00.191Z,15.98
2023-03-23T17:17:26.885Z,15.96
2023-03-23T17:19:53.526Z,15.96
2023-03-23T17:22:20.183Z,15.86
2023-03-23T17:24:46.821Z,15.81
2023-03-23T17:27:15.287Z,15.73
2023-03-23T17:29:41.932Z,15.88
2023-03-23T17:32:08.632Z,16.01
2023-03-23T17:34:35.293Z,16.10
2023-03-23T17:37:02.024Z,16.15
2023-03-23T17:39:30.077Z,16.23
2023-03-23T17:41:56.710Z,16.30
2023-03-23T17:44:23.356Z,16.24
2023-03-23T17:46:50.095Z,16.13
2023-03-23T17:49:16.783Z,15.91
2023-03-23T17:51:44.541Z,15.80
2023-03-23T17:54:11.349Z,15.58
2023-03-23T17:56:38.096Z,15.66
2023-03-23T17:59:04.754Z,15.70
2023-03-23T18:01:31.461Z,15.70
2023-03-23T18:03:58.189Z,15.78
2023-03-23T18:06:24.844Z,15.93
2023-03-23T18:08:52.410Z,15.99
2023-03-23T18:11:19.183Z,16.06
2023-03-23T18:13:45.840Z,16.22
2023-03-23T18:16:12.487Z,16.35
2023-03-23T18:18:39.179Z,16.54
2023-03-23T18:21:08.262Z,16.55
2023-03-23T18:23:39.095Z,16.60
2023-03-23T18:26:11.369Z,16.67
2023-03-23T18:28:38.036Z,16.59
2023-03-23T18:31:06.507Z,16.44
2023-03-23T18:33:33.394Z,16.36
2023-03-23T18:36:00.737Z,16.22
2023-03-23T18:38:28.421Z,16.31
2023-03-23T18:40:55.125Z,16.44
2023-03-23T18:43:21.847Z,16.49
2023-03-23T18:45:52.854Z,16.53
2023-03-23T18:48:19.506Z,16.60
2023-03-23T18:50:47.633Z,16.62
2023-03-23T18:53:14.270Z,16.68
2023-03-23T18:55:41.030Z,16.63
2023-03-23T18:58:07.670Z,16.37
2023-03-23T19:00:34.314Z,16.33
2023-03-23T19:03:01.067Z,16.26
2023-03-23T19:05:27.719Z,16.27
2023-03-23T19:07:54.352Z,16.42
2023-03-23T19:10:21.300Z,16.47
2023-03-23T19:12:48.744Z,16.57
2023-03-23T19:15:15.501Z,16.56
2023-03-23T19:17:42.711Z,16.69
2023-03-23T19:22:38.746Z,16.81
2023-03-23T19:25:06.510Z,16.82
2023-03-23T19:27:33.405Z,16.87
2023-03-23T19:30:00.177Z,16.87
2023-03-23T19:32:26.903Z,16.80
2023-03-23T19:34:53.555Z,16.79
2023-03-23T19:37:23.302Z,16.72
2023-03-23T19:39:50.060Z,16.76
2023-03-23T19:42:16.787Z,16.67
2023-03-23T19:44:43.487Z,16.64
2023-03-23T19:47:10.667Z,16.65
2023-03-23T19:49:37.367Z,16.65
2023-03-23T19:52:06.498Z,16.70
2023-03-23T19:54:37.199Z,16.69
2023-03-23T19:57:04.098Z,16.66
2023-03-23T19:59:30.883Z,16.70
2023-03-23T20:01:57.965Z,16.67
2023-03-23T20:04:25.557Z,16.59
2023-03-23T20:06:52.422Z,16.59
2023-03-23T20:09:19.082Z,16.67
2023-03-23T20:11:45.737Z,16.68
2023-03-23T20:14:12.391Z,16.73
2023-03-23T20:16:39.046Z,16.78
2023-03-23T20:19:05.983Z,16.80
2023-03-23T20:21:33.074Z,16.77
2023-03-23T20:24:00.370Z,16.75
2023-03-23T20:26:45.073Z,16.63
2023-03-23T20:29:11.743Z,16.70
2023-03-23T20:31:39.818Z,16.61
2023-03-23T20:34:10.964Z,16.63
2023-03-23T20:36:42.063Z,16.63
2023-03-23T20:39:17.075Z,16.78
2023-03-23T20:41:43.861Z,16.81
2023-03-23T20:44:11.510Z,16.87
2023-03-23T20:46:38.184Z,16.87
2023-03-23T20:49:04.942Z,16.83
2023-03-23T20:51:31.812Z,16.77
2023-03-23T20:53:58.544Z,16.80
2023-03-23T20:56:25.256Z,16.77
2023-03-23T20:58:51.956Z,16.81
2023-03-23T21:01:18.641Z,16.84
2023-03-23T21:03:45.335Z,16.77
2023-03-23T21:06:12.099Z,16.58
2023-03-23T21:08:39.933Z,16.32
2023-03-23T21:11:08.498Z,16.24
2023-03-23T21:13:35.182Z,15.91
2023-03-23T21:16:02.094Z,15.87
2023-03-23T21:18:29.101Z,15.81
2023-03-23T21:20:56.087Z,15.79
2023-03-23T21:23:23.238Z,15.73
2023-03-23T21:25:50.003Z,15.75
2023-03-23T21:28:16.685Z,15.70
2023-03-23T21:30:43.516Z,15.68
2023-03-23T21:33:10.365Z,15.68
2023-03-23T21:35:37.043Z,15.64
2023-03-23T21:38:03.703Z,15.61
2023-03-23T21:40:30.688Z,15.44
2023-03-23T21:42:57.322Z,15.16
2023-03-23T21:45:23.958Z,14.99
2023-03-23T21:47:50.704Z,14.91
2023-03-23T21:50:17.427Z,14.89
2023-03-23T21:52:44.137Z,15.13
2023-03-23T21:55:12.087Z,15.33
2023-03-23T21:57:39.606Z,15.50
2023-03-23T22:00:07.202Z,15.69
2023-03-23T22:02:33.848Z,15.72
2023-03-23T22:05:00.547Z,15.85
2023-03-23T22:07:27.924Z,15.86
2023-03-23T22:09:55.810Z,15.93
2023-03-23T22:12:22.579Z,15.93
2023-03-23T22:14:49.250Z,16.02
2023-03-23T22:17:15.933Z,15.97
2023-03-23T22:19:42.585Z,16.03
2023-03-23T22:22:09.283Z,15.98
2023-03-23T22:24:35.930Z,16.09
2023-03-23T22:27:02.568Z,16.20
2023-03-23T22:29:29.215Z,16.40
2023-03-23T22:31:55.866Z,16.54
2023-03-23T22:34:22.511Z,16.67
2023-03-23T22:36:49.150Z,16.69
2023-03-23T22:39:15.827Z,16.48
2023-03-23T22:41:42.491Z,16.29
2023-03-23T22:44:16.299Z,16.12
2023-03-23T22:46:43.010Z,15.81
2023-03-23T22:49:09.837Z,15.75
2023-03-23T22:51:36.716Z,15.57
2023-03-23T22:54:04.455Z,15.39
2023-03-23T22:56:31.164Z,15.25
2023-03-23T22:58:57.810Z,15.22
2023-03-23T23:01:24.483Z,15.24
2023-03-23T23:03:51.246Z,15.15
2023-03-23T23:06:18.219Z,15.07
2023-03-23T23:08:45.074Z,15.10
2023-03-23T23:11:16.585Z,15.24
2023-03-23T23:13:43.218Z,15.36
2023-03-23T23:16:10.451Z,15.43
2023-03-23T23:18:37.205Z,15.63
2023-03-23T23:21:08.929Z,15.79
2023-03-23T23:23:35.610Z,15.97
2023-03-23T23:26:02.687Z,15.98
2023-03-23T23:28:29.347Z,16.12
2023-03-23T23:30:56.076Z,16.06
2023-03-23T23:33:22.815Z,16.04
2023-03-23T23:35:49.623Z,15.98
2023-03-23T23:38:16.427Z,15.92
2023-03-23T23:40:43.691Z,15.84
2023-03-23T23:43:14.583Z,15.84
2023-03-23T23:45:41.398Z,15.38
2023-03-23T23:48:08.133Z,15.38
2023-03-23T23:50:34.801Z,15.23
2023-03-23T23:53:01.459Z,14.70
2023-03-23T23:55:28.103Z,14.25
2023-03-23T23:57:54.979Z,14.02
